createdAt,value
2023-12-09T00:00:51.466Z,9.6
2023-12-09T00:05:57.721Z,9.6
2023-12-09T00:11:03.807Z,9.6
2023-12-09T00:16:10.013Z,9.6
2023-12-09T00:21:16.244Z,9.6
2023-12-09T00:26:22.429Z,9.6
2023-12-09T00:31:28.645Z,9.6
2023-12-09T00:36:34.985Z,9.6
2023-12-09T00:41:41.077Z,9.6
2023-12-09T00:46:47.272Z,9.6
2023-12-09T00:51:52.496Z,9.6
2023-12-09T00:56:58.740Z,9.6
2023-12-09T01:02:04.900Z,9.6
2023-12-09T01:07:11.122Z,9.6
2023-12-09T01:12:17.363Z,9.5
2023-12-09T01:17:23.523Z,9.5
2023-12-09T01:22:30.055Z,9.5
2023-12-09T01:27:36.011Z,9.5
2023-12-09T01:32:42.335Z,9.5
2023-12-09T01:37:48.402Z,9.5
2023-12-09T01:48:00.939Z,9.5
2023-12-09T01:53:06.981Z,9.5
2023-12-09T01:58:13.204Z,9.4
2023-12-09T02:03:19.455Z,9.4
2023-12-09T02:08:25.614Z,9.4
2023-12-09T02:13:31.807Z,9.4
2023-12-09T02:18:38.108Z,9.4
2023-12-09T02:23:44.228Z,9.4
2023-12-09T02:28:50.675Z,9.3
2023-12-09T02:33:56.750Z,9.3
2023-12-09T02:39:02.877Z,9.3
2023-12-09T02:44:09.175Z,9.3
2023-12-09T02:49:15.383Z,9.3
2023-12-09T02:54:21.563Z,9.2
2023-12-09T02:59:27.809Z,9.2
2023-12-09T03:04:33.923Z,9.2
2023-12-09T03:09:40.099Z,9.2
2023-12-09T03:14:46.303Z,9.1
2023-12-09T03:19:52.641Z,9.1
2023-12-09T03:24:58.733Z,9.1
2023-12-09T03:30:05.012Z,9.1
2023-12-09T03:35:11.195Z,9.1
2023-12-09T03:40:17.361Z,9.1
2023-12-09T03:45:23.635Z,9.1
2023-12-09T03:50:29.766Z,9.1
2023-12-09T03:55:35.965Z,9.2
2023-12-09T04:00:42.290Z,9.2
2023-12-09T04:05:48.481Z,9.2
2023-12-09T04:10:54.595Z,9.2
2023-12-09T04:16:00.814Z,9.2
2023-12-09T04:21:07.040Z,9.2
2023-12-09T04:26:13.226Z,9.2
2023-12-09T04:31:19.429Z,9.2
2023-12-09T04:36:25.792Z,9.2
2023-12-09T04:41:31.864Z,9.2
2023-12-09T04:46:38.061Z,9.2
2023-12-09T04:51:44.270Z,9.2
2023-12-09T04:56:50.489Z,9.2
2023-12-09T05:01:56.709Z,9.2
2023-12-09T05:07:02.895Z,9.1
2023-12-09T05:12:09.119Z,9.1
2023-12-09T05:17:15.322Z,9.1
2023-12-09T05:22:21.530Z,9.1
2023-12-09T05:27:27.761Z,9.0
2023-12-09T05:32:34.060Z,9.0
2023-12-09T05:37:40.155Z,9.0
2023-12-09T05:42:46.407Z,9.0
2023-12-09T05:47:52.621Z,9.0
2023-12-09T05:53:02.142Z,9.0
2023-12-09T05:58:04.964Z,8.9
2023-12-09T06:03:11.271Z,8.9
2023-12-09T06:08:17.515Z,8.9
2023-12-09T06:13:23.608Z,8.9
2023-12-09T06:18:29.882Z,8.9
2023-12-09T06:23:35.037Z,8.9
2023-12-09T06:28:41.236Z,8.9
2023-12-09T06:33:47.579Z,8.9
2023-12-09T06:38:53.651Z,9.0
2023-12-09T06:43:59.857Z,9.0
2023-12-09T06:49:06.649Z,9.0
2023-12-09T06:54:12.306Z,9.0
2023-12-09T06:59:18.479Z,9.0
2023-12-09T07:04:24.773Z,9.0
2023-12-09T07:09:31.000Z,9.0
2023-12-09T07:14:37.113Z,8.9
2023-12-09T07:19:43.606Z,8.9
2023-12-09T07:24:49.692Z,8.9
2023-12-09T07:29:55.815Z,8.8
2023-12-09T07:35:02.103Z,8.8
2023-12-09T07:40:08.139Z,8.8
2023-12-09T07:45:14.584Z,8.8
2023-12-09T07:50:20.561Z,8.8
2023-12-09T07:55:26.755Z,8.8
2023-12-09T08:00:33.188Z,8.8
2023-12-09T08:05:39.220Z,8.8
2023-12-09T08:10:45.399Z,8.9
2023-12-09T08:15:51.609Z,8.9
2023-12-09T08:20:57.853Z,9.0
2023-12-09T08:31:10.223Z,9.0
2023-12-09T08:36:16.495Z,9.1
2023-12-09T08:41:22.657Z,9.1
2023-12-09T08:46:29.073Z,9.2
2023-12-09T08:51:35.068Z,9.2
2023-12-09T08:56:41.302Z,9.2
2023-12-09T09:01:47.477Z,9.3
2023-12-09T09:06:53.686Z,9.3
2023-12-09T09:11:59.905Z,9.4
2023-12-09T09:17:06.104Z,9.4
2023-12-09T09:22:12.307Z,9.5
2023-12-09T09:27:18.545Z,9.5
2023-12-09T09:32:24.885Z,9.6
2023-12-09T09:37:30.937Z,9.6
2023-12-09T09:42:37.156Z,9.7
2023-12-09T09:47:44.715Z,9.7
2023-12-09T09:52:49.549Z,9.7
2023-12-09T09:57:55.848Z,9.8
2023-12-09T10:03:04.272Z,9.8
2023-12-09T10:08:08.180Z,9.9
2023-12-09T10:13:14.382Z,9.9
2023-12-09T10:18:20.683Z,9.9
2023-12-09T10:23:26.798Z,9.9
2023-12-09T10:28:33.012Z,10.0
2023-12-09T10:33:39.351Z,10.1
2023-12-09T10:38:45.431Z,10.1
2023-12-09T10:43:51.640Z,10.1
2023-12-09T10:48:57.950Z,10.2
2023-12-09T10:54:04.076Z,10.3
2023-12-09T10:59:10.254Z,10.3
2023-12-09T11:04:16.721Z,10.4
2023-12-09T11:09:22.757Z,10.4
2023-12-09T11:14:28.879Z,10.5
2023-12-09T11:19:35.325Z,10.5
2023-12-09T11:24:41.336Z,10.6
2023-12-09T11:29:47.527Z,10.6
2023-12-09T11:34:53.706Z,10.6
2023-12-09T11:39:59.929Z,10.7
2023-12-09T11:45:06.140Z,10.6
2023-12-09T11:50:12.369Z,10.7
2023-12-09T11:55:17.567Z,10.6
2023-12-09T12:00:23.855Z,10.6
2023-12-09T12:05:30.032Z,10.6
2023-12-09T12:10:38.251Z,10.6
2023-12-09T12:15:42.426Z,10.7
2023-12-09T12:20:48.596Z,10.7
2023-12-09T12:25:53.832Z,10.7
2023-12-09T12:31:00.065Z,10.8
2023-12-09T12:36:06.304Z,10.8
2023-12-09T12:41:12.459Z,10.9
2023-12-09T12:46:18.664Z,10.9
2023-12-09T12:51:26.889Z,10.9
2023-12-09T12:56:31.082Z,10.9
2023-12-09T13:01:37.354Z,10.9
2023-12-09T13:06:43.560Z,10.9
2023-12-09T13:11:49.711Z,10.9
2023-12-09T13:16:55.983Z,10.9
2023-12-09T13:22:02.348Z,10.9
2023-12-09T13:27:08.365Z,10.8
2023-12-09T13:32:14.537Z,10.8
2023-12-09T13:37:20.747Z,10.8
2023-12-09T13:42:27.477Z,10.7
2023-12-09T13:47:33.203Z,10.7
2023-12-09T13:52:39.364Z,10.6
2023-12-09T13:57:45.678Z,10.6
2023-12-09T14:02:51.777Z,10.5
2023-12-09T14:07:57.987Z,10.5
2023-12-09T14:13:04.206Z,10.4
2023-12-09T14:18:10.503Z,10.4
2023-12-09T14:23:16.617Z,10.4
2023-12-09T14:28:22.957Z,10.3
2023-12-09T14:33:29.239Z,10.3
2023-12-09T14:38:35.365Z,10.3
2023-12-09T14:43:41.439Z,10.3
2023-12-09T14:48:47.941Z,10.2
2023-12-09T14:53:53.851Z,10.2
2023-12-09T14:59:00.057Z,10.2
2023-12-09T15:04:06.404Z,10.2
2023-12-09T15:09:12.480Z,10.1
2023-12-09T15:14:18.698Z,10.1
2023-12-09T15:19:25.045Z,10.1
2023-12-09T15:24:31.107Z,10.0
2023-12-09T15:29:37.323Z,10.0
2023-12-09T15:34:43.609Z,9.9
2023-12-09T15:39:49.769Z,9.9
2023-12-09T15:44:56.149Z,9.9
2023-12-09T15:50:02.138Z,9.9
2023-12-09T15:55:08.436Z,9.8
2023-12-09T16:00:14.873Z,9.8
2023-12-09T16:05:21.092Z,9.8
2023-12-09T16:10:26.966Z,9.8
2023-12-09T16:15:33.370Z,9.8
2023-12-09T16:20:39.385Z,9.8
2023-12-09T16:25:45.611Z,9.7
2023-12-09T16:30:51.879Z,9.8
2023-12-09T16:35:58.011Z,9.8
2023-12-09T16:41:04.213Z,9.8
2023-12-09T16:46:10.454Z,9.8
2023-12-09T16:51:16.663Z,9.8
2023-12-09T16:56:23.077Z,9.9
2023-12-09T17:01:29.105Z,9.9
2023-12-09T17:06:35.285Z,9.9
2023-12-09T17:11:41.467Z,10.0
2023-12-09T17:16:47.675Z,10.0
2023-12-09T17:21:53.899Z,10.1
2023-12-09T17:27:00.118Z,10.1
2023-12-09T17:32:06.310Z,10.2
2023-12-09T17:37:12.510Z,10.3
2023-12-09T17:42:18.772Z,10.3
2023-12-09T17:52:33.569Z,10.4
2023-12-09T17:57:36.395Z,10.5
2023-12-09T18:02:42.628Z,10.5
2023-12-09T18:07:48.802Z,10.6
2023-12-09T18:12:55.001Z,10.7
2023-12-09T18:18:01.259Z,10.8
2023-12-09T18:23:07.397Z,10.9
2023-12-09T18:28:13.591Z,11.0
2023-12-09T18:33:19.899Z,11.1
2023-12-09T18:38:26.036Z,11.1
2023-12-09T18:43:32.531Z,11.3
2023-12-09T18:53:44.650Z,11.4
2023-12-09T18:58:50.846Z,11.6
2023-12-09T19:03:57.276Z,11.7
2023-12-09T19:09:03.269Z,11.8
2023-12-09T19:14:09.473Z,11.9
2023-12-09T19:19:15.879Z,12.1
2023-12-09T19:29:28.234Z,12.3
2023-12-09T19:34:34.488Z,12.4
2023-12-09T19:39:40.684Z,12.5
2023-12-09T19:44:46.948Z,12.6
2023-12-09T19:49:53.157Z,12.6
2023-12-09T19:54:59.136Z,12.5
2023-12-09T20:00:05.572Z,12.5
2023-12-09T20:05:11.567Z,12.4
2023-12-09T20:10:17.881Z,12.3
2023-12-09T20:15:24.006Z,12.3
2023-12-09T20:20:30.509Z,12.2
2023-12-09T20:25:36.397Z,12.2
2023-12-09T20:30:42.739Z,12.2
2023-12-09T20:35:48.806Z,12.2
2023-12-09T20:40:55.168Z,12.2
2023-12-09T20:46:01.244Z,12.2
2023-12-09T20:51:07.581Z,12.2
2023-12-09T20:56:13.653Z,12.2
2023-12-09T21:01:20.096Z,12.2
2023-12-09T21:06:26.076Z,12.2
2023-12-09T21:11:35.611Z,12.2
2023-12-09T21:21:44.853Z,12.2
2023-12-09T21:26:50.892Z,12.1
2023-12-09T21:31:57.231Z,12.1
2023-12-09T21:37:03.451Z,12.1
2023-12-09T21:42:09.744Z,12.1
2023-12-09T21:47:15.865Z,12.1
2023-12-09T21:52:21.954Z,12.1
2023-12-09T21:57:28.329Z,12.1
2023-12-09T22:02:34.396Z,12.1
2023-12-09T22:07:40.692Z,12.1
2023-12-09T22:12:46.822Z,12.0
2023-12-09T22:17:53.156Z,12.0
2023-12-09T22:22:59.619Z,12.0
2023-12-09T22:28:05.536Z,11.9
2023-12-09T22:33:11.707Z,11.9
2023-12-09T22:38:17.934Z,11.8
2023-12-09T22:43:24.036Z,11.8
2023-12-09T22:48:30.568Z,11.8
2023-12-09T22:53:36.435Z,11.8
2023-12-09T22:58:42.874Z,11.7
2023-12-09T23:03:48.913Z,11.7
2023-12-09T23:08:55.199Z,11.7
2023-12-09T23:14:01.296Z,11.6
2023-12-09T23:19:07.731Z,11.6
2023-12-09T23:24:13.720Z,11.6
2023-12-09T23:29:19.046Z,11.6
2023-12-09T23:34:25.207Z,11.6
2023-12-09T23:39:31.508Z,11.6
2023-12-09T23:44:37.534Z,11.6
2023-12-09T23:49:43.886Z,11.6
2023-12-09T23:54:50.075Z,11.6
2023-12-09T23:59:56.293Z,11.6
